createdAt,value
2023-05-12T00:02:10.979Z,13.42
2023-05-12T00:04:40.259Z,13.39
2023-05-12T00:07:08.811Z,13.43
2023-05-12T00:09:36.403Z,13.49
2023-05-12T00:12:04.358Z,13.49
2023-05-12T00:14:31.893Z,13.44
2023-05-12T00:16:59.426Z,13.44
2023-05-12T00:19:28.266Z,13.46
2023-05-12T00:21:55.839Z,13.44
2023-05-12T00:24:23.356Z,13.43
2023-05-12T00:26:50.862Z,13.43
2023-05-12T00:29:18.918Z,13.46
2023-05-12T00:31:46.596Z,13.48
2023-05-12T00:34:14.264Z,13.45
2023-05-12T00:36:43.224Z,13.47
2023-05-12T00:39:10.816Z,13.48
2023-05-12T00:41:38.398Z,13.48
2023-05-12T00:44:06.487Z,13.43
2023-05-12T00:46:34.346Z,13.40
2023-05-12T00:49:02.352Z,13.46
2023-05-12T00:51:30.003Z,13.48
2023-05-12T00:53:59.905Z,13.51
2023-05-12T00:56:27.790Z,13.49
2023-05-12T00:58:55.924Z,13.52
2023-05-12T01:01:23.875Z,13.58
2023-05-12T01:03:54.575Z,13.58
2023-05-12T01:06:28.769Z,13.58
2023-05-12T01:08:56.968Z,13.61
2023-05-12T01:11:26.162Z,13.64
2023-05-12T01:13:53.717Z,13.64
2023-05-12T01:16:24.908Z,13.66
2023-05-12T01:18:56.948Z,13.69
2023-05-12T01:21:24.870Z,13.64
2023-05-12T01:23:59.339Z,13.62
2023-05-12T01:26:32.303Z,13.61
2023-05-12T01:29:02.302Z,13.59
2023-05-12T01:31:30.048Z,13.53
2023-05-12T01:33:58.268Z,13.57
2023-05-12T01:36:26.056Z,13.56
2023-05-12T01:38:53.642Z,13.54
2023-05-12T01:41:21.236Z,13.55
2023-05-12T01:43:50.250Z,13.53
2023-05-12T01:46:18.493Z,13.54
2023-05-12T01:48:46.413Z,13.55
2023-05-12T01:51:14.424Z,13.58
2023-05-12T01:53:42.250Z,13.57
2023-05-12T01:56:10.505Z,13.57
2023-05-12T01:58:38.189Z,13.48
2023-05-12T02:01:07.346Z,13.50
2023-05-12T02:03:35.032Z,13.50
2023-05-12T02:06:02.686Z,13.51
2023-05-12T02:08:30.772Z,13.52
2023-05-12T02:11:06.044Z,13.59
2023-05-12T02:13:34.042Z,13.62
2023-05-12T02:16:02.055Z,13.56
2023-05-12T02:18:31.691Z,13.55
2023-05-12T02:20:59.314Z,13.50
2023-05-12T02:23:26.872Z,13.53
2023-05-12T02:25:54.659Z,13.56
2023-05-12T02:28:22.220Z,13.52
2023-05-12T02:30:52.855Z,13.51
2023-05-12T02:33:22.013Z,13.56
2023-05-12T02:35:51.107Z,13.56
2023-05-12T02:38:18.719Z,13.60
2023-05-12T02:40:47.233Z,13.60
2023-05-12T02:43:16.009Z,13.56
2023-05-12T02:45:44.007Z,13.59
2023-05-12T02:48:11.907Z,13.56
2023-05-12T02:50:39.449Z,13.57
2023-05-12T02:53:08.332Z,13.58
2023-05-12T02:55:35.857Z,13.56
2023-05-12T02:58:03.456Z,13.54
2023-05-12T03:00:31.294Z,13.52
2023-05-12T03:02:58.932Z,13.49
2023-05-12T03:05:26.742Z,13.53
2023-05-12T03:07:54.811Z,13.51
2023-05-12T03:10:23.759Z,13.53
2023-05-12T03:12:51.361Z,13.49
2023-05-12T03:15:18.961Z,13.46
2023-05-12T03:17:46.586Z,13.47
2023-05-12T03:20:14.179Z,13.48
2023-05-12T03:22:42.152Z,13.40
2023-05-12T03:25:11.202Z,13.44
2023-05-12T03:27:40.047Z,13.43
2023-05-12T03:30:09.478Z,13.45
2023-05-12T03:32:39.213Z,13.47
2023-05-12T03:35:09.413Z,13.46
2023-05-12T03:37:37.392Z,13.47
2023-05-12T03:40:06.956Z,13.47
2023-05-12T03:42:34.522Z,13.48
2023-05-12T03:45:03.399Z,13.43
2023-05-12T03:47:31.149Z,13.41
2023-05-12T03:49:59.084Z,13.40
2023-05-12T03:52:26.886Z,13.40
2023-05-12T03:54:54.688Z,13.40
2023-05-12T03:57:22.286Z,13.44
2023-05-12T03:59:49.899Z,13.43
2023-05-12T04:02:18.881Z,13.46
2023-05-12T04:04:46.654Z,13.46
2023-05-12T04:07:15.691Z,13.47
2023-05-12T04:09:43.951Z,13.48
2023-05-12T04:12:11.848Z,13.49
2023-05-12T04:14:43.103Z,13.49
2023-05-12T04:17:11.071Z,13.49
2023-05-12T04:19:39.955Z,13.55
2023-05-12T04:22:07.524Z,13.52
2023-05-12T04:24:35.090Z,13.55
2023-05-12T04:27:02.665Z,13.55
2023-05-12T04:29:30.238Z,13.59
2023-05-12T04:31:57.846Z,13.61
2023-05-12T04:34:25.781Z,13.60
2023-05-12T04:36:55.363Z,13.60
2023-05-12T04:39:23.111Z,13.64
2023-05-12T04:41:50.724Z,13.62
2023-05-12T04:44:19.475Z,13.69
2023-05-12T04:46:47.002Z,13.72
2023-05-12T04:49:14.593Z,13.72
2023-05-12T04:51:44.358Z,13.70
2023-05-12T04:54:13.227Z,13.75
2023-05-12T04:56:41.252Z,13.73
2023-05-12T04:59:08.947Z,13.78
2023-05-12T05:01:36.696Z,13.75
2023-05-12T05:04:04.664Z,13.80
2023-05-12T05:06:32.333Z,13.82
2023-05-12T05:09:01.089Z,13.83
2023-05-12T05:11:30.736Z,13.86
2023-05-12T05:13:58.308Z,13.87
2023-05-12T05:16:26.263Z,13.89
2023-05-12T05:18:53.913Z,13.90
2023-05-12T05:21:21.462Z,13.95
2023-05-12T05:23:49.125Z,13.97
2023-05-12T05:26:17.155Z,14.07
2023-05-12T05:28:46.154Z,14.06
2023-05-12T05:31:17.000Z,14.12
2023-05-12T05:33:45.023Z,14.12
2023-05-12T05:36:13.536Z,14.14
2023-05-12T05:38:41.065Z,14.16
2023-05-12T05:41:09.769Z,14.24
2023-05-12T05:43:37.648Z,14.27
2023-05-12T05:46:06.751Z,14.32
2023-05-12T05:48:36.268Z,14.35
2023-05-12T05:51:04.943Z,14.39
2023-05-12T05:53:33.266Z,14.43
2023-05-12T05:56:01.342Z,14.45
2023-05-12T05:58:29.016Z,14.48
2023-05-12T06:00:56.873Z,14.48
2023-05-12T06:03:25.883Z,14.58
2023-05-12T06:05:53.785Z,14.67
2023-05-12T06:08:22.140Z,14.74
2023-05-12T06:10:49.703Z,14.77
2023-05-12T06:13:19.064Z,14.82
2023-05-12T06:15:46.695Z,14.85
2023-05-12T06:18:14.271Z,14.90
2023-05-12T06:20:43.216Z,14.98
2023-05-12T06:23:10.793Z,15.07
2023-05-12T06:25:39.082Z,15.14
2023-05-12T06:28:06.962Z,15.28
2023-05-12T06:30:35.546Z,15.36
2023-05-12T06:33:03.293Z,15.42
2023-05-12T06:35:30.926Z,15.46
2023-05-12T06:37:59.845Z,15.53
2023-05-12T06:40:27.460Z,15.60
2023-05-12T06:42:55.021Z,15.66
2023-05-12T06:45:23.367Z,15.66
2023-05-12T06:47:51.123Z,15.69
2023-05-12T06:50:19.443Z,15.75
2023-05-12T06:52:52.158Z,15.87
2023-05-12T06:55:22.527Z,15.94
2023-05-12T06:57:51.495Z,15.99
2023-05-12T07:00:19.674Z,16.11
2023-05-12T07:02:47.252Z,16.14
2023-05-12T07:05:14.855Z,16.25
2023-05-12T07:07:42.464Z,16.00
2023-05-12T07:10:10.381Z,16.08
2023-05-12T07:12:39.384Z,16.13
2023-05-12T07:15:08.404Z,16.31
2023-05-12T07:17:36.157Z,16.32
2023-05-12T07:20:04.853Z,16.42
2023-05-12T07:22:33.225Z,16.50
2023-05-12T07:25:01.019Z,16.51
2023-05-12T07:27:28.568Z,16.70
2023-05-12T07:29:57.413Z,16.71
2023-05-12T07:32:26.995Z,16.82
2023-05-12T07:34:54.606Z,16.92
2023-05-12T07:37:22.136Z,17.06
2023-05-12T07:39:49.741Z,16.96
2023-05-12T07:42:17.289Z,17.15
2023-05-12T07:44:44.897Z,17.21
2023-05-12T07:47:13.880Z,17.27
2023-05-12T07:49:41.443Z,17.40
2023-05-12T07:52:08.933Z,17.30
2023-05-12T07:54:36.446Z,17.38
2023-05-12T07:57:04.144Z,17.49
2023-05-12T07:59:31.891Z,17.65
2023-05-12T08:01:59.545Z,17.82
2023-05-12T08:04:28.686Z,17.86
2023-05-12T08:06:56.336Z,17.97
2023-05-12T08:09:23.814Z,18.04
2023-05-12T08:11:51.850Z,18.23
2023-05-12T08:14:19.471Z,18.34
2023-05-12T08:16:47.194Z,18.25
2023-05-12T08:19:14.896Z,18.44
2023-05-12T08:21:43.781Z,18.25
2023-05-12T08:24:11.334Z,18.23
2023-05-12T08:26:38.850Z,18.51
2023-05-12T08:29:08.526Z,18.64
2023-05-12T08:31:37.559Z,18.92
2023-05-12T08:34:10.476Z,18.76
2023-05-12T08:36:39.072Z,18.94
2023-05-12T08:39:08.853Z,19.05
2023-05-12T08:41:44.354Z,19.31
2023-05-12T08:44:12.480Z,19.46
2023-05-12T08:46:40.644Z,19.72
2023-05-12T08:49:15.571Z,19.97
2023-05-12T08:51:49.942Z,20.15
2023-05-12T08:54:28.388Z,20.25
2023-05-12T08:59:26.999Z,20.28
2023-05-12T09:01:56.257Z,20.61
2023-05-12T09:04:24.029Z,20.78
2023-05-12T09:06:54.355Z,20.97
2023-05-12T09:09:26.247Z,20.91
2023-05-12T09:11:57.841Z,20.99
2023-05-12T09:14:26.770Z,20.86
2023-05-12T09:16:59.568Z,20.97
2023-05-12T09:19:27.152Z,21.08
2023-05-12T09:21:55.234Z,21.14
2023-05-12T09:24:36.370Z,21.28
2023-05-12T09:27:04.798Z,21.40
2023-05-12T09:29:37.470Z,21.66
2023-05-12T09:32:09.943Z,21.47
2023-05-12T09:34:40.740Z,21.44
2023-05-12T09:37:09.003Z,21.56
2023-05-12T09:39:38.141Z,21.79
2023-05-12T09:42:12.607Z,21.85
2023-05-12T09:44:40.570Z,21.94
2023-05-12T09:47:10.110Z,22.01
2023-05-12T09:49:38.136Z,22.11
2023-05-12T09:52:06.269Z,22.01
2023-05-12T09:54:34.693Z,22.29
2023-05-12T09:57:05.830Z,22.26
2023-05-12T09:59:36.043Z,22.31
2023-05-12T10:02:06.957Z,22.59
2023-05-12T10:04:41.545Z,22.50
2023-05-12T10:07:11.420Z,22.09
2023-05-12T10:09:42.090Z,22.41
2023-05-12T10:12:11.371Z,22.46
2023-05-12T10:14:39.658Z,22.39
2023-05-12T10:17:07.823Z,21.56
2023-05-12T10:19:36.679Z,21.93
2023-05-12T10:22:06.604Z,22.37
2023-05-12T10:24:36.547Z,22.49
2023-05-12T10:27:06.273Z,22.79
2023-05-12T10:29:36.616Z,22.50
2023-05-12T10:32:04.352Z,21.98
2023-05-12T10:34:34.684Z,21.84
2023-05-12T10:37:08.074Z,21.91
2023-05-12T10:39:35.757Z,21.66
2023-05-12T10:42:07.011Z,21.47
2023-05-12T10:44:36.278Z,21.40
2023-05-12T10:47:14.338Z,21.25
2023-05-12T10:49:42.194Z,21.47
2023-05-12T10:52:12.126Z,21.83
2023-05-12T10:54:44.085Z,22.17
2023-05-12T10:57:18.298Z,22.11
2023-05-12T10:59:53.015Z,22.27
2023-05-12T11:02:27.532Z,22.17
2023-05-12T11:04:58.018Z,22.16
2023-05-12T11:07:27.866Z,22.46
2023-05-12T11:09:59.089Z,22.58
2023-05-12T11:12:32.147Z,22.59
2023-05-12T11:15:02.636Z,22.58
2023-05-12T11:17:30.569Z,22.38
2023-05-12T11:19:58.501Z,22.74
2023-05-12T11:22:26.613Z,23.11
2023-05-12T11:24:54.251Z,22.94
2023-05-12T11:27:23.809Z,23.05
2023-05-12T11:29:58.832Z,22.92
2023-05-12T11:32:28.248Z,22.61
2023-05-12T11:34:55.898Z,23.10
2023-05-12T11:37:23.621Z,23.44
2023-05-12T11:39:52.853Z,23.43
2023-05-12T11:42:22.303Z,23.75
2023-05-12T11:44:51.863Z,23.60
2023-05-12T11:47:20.806Z,23.71
2023-05-12T11:49:51.633Z,23.13
2023-05-12T11:52:20.902Z,22.68
2023-05-12T11:54:49.655Z,22.68
2023-05-12T11:57:26.883Z,22.86
2023-05-12T11:59:58.894Z,22.90
2023-05-12T12:02:27.304Z,23.22
2023-05-12T12:04:56.464Z,23.25
2023-05-12T12:07:31.125Z,22.71
2023-05-12T12:09:59.118Z,23.09
2023-05-12T12:12:26.653Z,23.54
2023-05-12T12:14:56.567Z,23.63
2023-05-12T12:17:30.468Z,23.38
2023-05-12T12:19:59.391Z,23.73
2023-05-12T12:22:27.037Z,23.78
2023-05-12T12:24:54.621Z,23.77
2023-05-12T12:27:22.226Z,23.95
2023-05-12T12:29:50.161Z,23.90
2023-05-12T12:32:17.690Z,23.67
2023-05-12T12:34:46.267Z,23.31
2023-05-12T12:37:16.068Z,23.80
2023-05-12T12:39:43.659Z,23.97
2023-05-12T12:42:11.223Z,23.64
2023-05-12T12:44:39.311Z,23.62
2023-05-12T12:47:07.677Z,23.88
2023-05-12T12:49:35.440Z,23.98
2023-05-12T12:52:03.080Z,23.78
2023-05-12T12:54:31.973Z,23.23
2023-05-12T12:56:59.543Z,23.30
2023-05-12T12:59:27.752Z,23.38
2023-05-12T13:01:55.353Z,22.84
2023-05-12T13:04:23.282Z,23.18
2023-05-12T13:06:50.868Z,23.41
2023-05-12T13:09:19.896Z,23.63
2023-05-12T13:11:50.128Z,23.50
2023-05-12T13:14:17.694Z,23.46
2023-05-12T13:16:46.061Z,23.37
2023-05-12T13:19:13.681Z,23.07
2023-05-12T13:21:41.822Z,23.20
2023-05-12T13:24:09.571Z,23.29
2023-05-12T13:26:37.094Z,23.45
2023-05-12T13:29:05.998Z,23.51
2023-05-12T13:31:33.876Z,23.34
2023-05-12T13:34:01.704Z,23.30
2023-05-12T13:36:29.982Z,23.43
2023-05-12T13:38:57.607Z,22.99
2023-05-12T13:41:25.257Z,23.06
2023-05-12T13:43:52.948Z,22.97
2023-05-12T13:46:22.716Z,22.94
2023-05-12T13:48:52.220Z,22.72
2023-05-12T13:51:23.185Z,22.89
2023-05-12T13:53:50.744Z,22.92
2023-05-12T13:56:18.586Z,23.08
2023-05-12T13:58:46.305Z,22.48
2023-05-12T14:01:14.081Z,22.48
2023-05-12T14:03:43.502Z,22.68
2023-05-12T14:06:12.393Z,22.72
2023-05-12T14:08:39.989Z,22.51
2023-05-12T14:11:07.761Z,22.55
2023-05-12T14:13:35.685Z,22.56
2023-05-12T14:16:03.547Z,22.67
2023-05-12T14:18:31.273Z,22.75
2023-05-12T14:21:00.453Z,22.76
2023-05-12T14:23:28.235Z,22.71
2023-05-12T14:25:56.384Z,22.45
2023-05-12T14:28:24.092Z,22.24
2023-05-12T14:30:56.144Z,22.23
2023-05-12T14:33:23.679Z,22.35
2023-05-12T14:36:03.113Z,22.29
2023-05-12T14:38:35.923Z,22.37
2023-05-12T14:41:03.875Z,22.47
2023-05-12T14:43:31.793Z,22.47
2023-05-12T14:45:59.428Z,22.38
2023-05-12T14:48:27.142Z,22.47
2023-05-12T14:50:55.253Z,22.23
2023-05-12T14:53:23.602Z,22.39
2023-05-12T14:55:53.047Z,22.33
2023-05-12T14:58:21.827Z,22.23
2023-05-12T15:00:51.669Z,22.29
2023-05-12T15:03:20.598Z,22.22
2023-05-12T15:06:04.730Z,22.23
2023-05-12T15:08:33.729Z,22.00
2023-05-12T15:11:02.699Z,21.91
2023-05-12T15:13:30.516Z,21.90
2023-05-12T15:15:58.030Z,21.67
2023-05-12T15:18:25.785Z,21.59
2023-05-12T15:20:53.480Z,21.59
2023-05-12T15:23:21.320Z,21.63
2023-05-12T15:25:48.967Z,21.62
2023-05-12T15:28:18.169Z,21.55
2023-05-12T15:30:45.876Z,21.70
2023-05-12T15:33:13.487Z,21.46
2023-05-12T15:35:41.587Z,21.38
2023-05-12T15:38:09.269Z,21.36
2023-05-12T15:40:37.113Z,21.30
2023-05-12T15:43:04.972Z,21.17
2023-05-12T15:45:37.121Z,21.11
2023-05-12T15:50:33.510Z,21.00
2023-05-12T15:53:01.998Z,21.10
2023-05-12T15:55:29.962Z,21.05
2023-05-12T15:57:58.191Z,21.04
2023-05-12T16:00:25.901Z,21.23
2023-05-12T16:02:55.047Z,21.30
2023-05-12T16:05:24.038Z,21.40
2023-05-12T16:07:54.514Z,21.45
2023-05-12T16:10:22.696Z,21.37
2023-05-12T16:12:50.331Z,21.06
2023-05-12T16:15:18.162Z,21.03
2023-05-12T16:17:46.215Z,21.31
2023-05-12T16:20:15.389Z,20.96
2023-05-12T16:22:42.913Z,20.83
2023-05-12T16:25:11.187Z,20.78
2023-05-12T16:27:38.831Z,20.83
2023-05-12T16:30:07.702Z,21.14
2023-05-12T16:32:35.304Z,21.28
2023-05-12T16:35:03.036Z,21.24
2023-05-12T16:37:32.150Z,21.40
2023-05-12T16:39:59.853Z,21.33
2023-05-12T16:42:27.474Z,21.01
2023-05-12T16:44:55.529Z,21.07
2023-05-12T16:47:23.132Z,21.04
2023-05-12T16:49:53.193Z,20.89
2023-05-12T16:52:20.776Z,20.70
2023-05-12T16:54:49.647Z,20.99
2023-05-12T16:57:18.144Z,20.92
2023-05-12T16:59:45.812Z,21.12
2023-05-12T17:02:13.473Z,21.16
2023-05-12T17:04:41.457Z,21.14
2023-05-12T17:07:09.285Z,21.21
2023-05-12T17:09:36.884Z,21.03
2023-05-12T17:12:06.736Z,21.02
2023-05-12T17:14:35.537Z,20.90
2023-05-12T17:17:03.344Z,20.89
2023-05-12T17:19:30.912Z,21.00
2023-05-12T17:21:58.553Z,20.63
2023-05-12T17:24:26.710Z,20.59
2023-05-12T17:26:54.804Z,20.73
2023-05-12T17:29:23.667Z,21.02
2023-05-12T17:31:51.299Z,21.63
2023-05-12T17:34:18.883Z,22.04
2023-05-12T17:36:46.457Z,21.83
2023-05-12T17:39:15.879Z,21.99
2023-05-12T17:41:43.845Z,22.41
2023-05-12T17:44:11.396Z,22.65
2023-05-12T17:46:40.404Z,22.09
2023-05-12T17:49:08.077Z,22.24
2023-05-12T17:51:36.259Z,22.18
2023-05-12T17:54:04.150Z,22.50
2023-05-12T17:56:31.676Z,22.22
2023-05-12T17:58:59.219Z,21.70
2023-05-12T18:01:26.866Z,21.65
2023-05-12T18:03:55.773Z,22.31
2023-05-12T18:06:24.235Z,22.52
2023-05-12T18:08:52.186Z,22.77
2023-05-12T18:11:19.784Z,22.22
2023-05-12T18:16:27.584Z,22.75
2023-05-12T18:18:58.445Z,22.90
2023-05-12T18:21:26.218Z,21.87
2023-05-12T18:23:53.756Z,21.60
2023-05-12T18:26:21.373Z,21.48
2023-05-12T18:28:48.971Z,20.66
2023-05-12T18:31:19.229Z,20.59
2023-05-12T18:33:47.534Z,20.32
2023-05-12T18:36:16.627Z,19.60
2023-05-12T18:38:44.473Z,19.17
2023-05-12T18:41:12.806Z,19.16
2023-05-12T18:43:40.433Z,18.98
2023-05-12T18:46:07.968Z,18.67
2023-05-12T18:48:35.513Z,18.68
2023-05-12T18:51:03.057Z,18.59
2023-05-12T18:53:31.894Z,18.30
2023-05-12T18:55:59.432Z,18.30
2023-05-12T18:58:26.996Z,18.23
2023-05-12T19:00:54.583Z,18.07
2023-05-12T19:03:22.240Z,18.02
2023-05-12T19:05:49.840Z,17.87
2023-05-12T19:08:18.996Z,17.86
2023-05-12T19:10:48.514Z,17.91
2023-05-12T19:13:16.064Z,17.78
2023-05-12T19:15:43.607Z,17.80
2023-05-12T19:18:11.353Z,17.89
2023-05-12T19:20:39.033Z,17.90
2023-05-12T19:23:07.014Z,17.86
2023-05-12T19:25:35.288Z,17.87
2023-05-12T19:28:04.559Z,17.73
2023-05-12T19:30:32.229Z,17.64
2023-05-12T19:32:59.805Z,17.55
2023-05-12T19:35:27.387Z,17.46
2023-05-12T19:37:54.969Z,17.42
2023-05-12T19:40:22.468Z,17.33
2023-05-12T19:42:50.303Z,17.19
2023-05-12T19:45:19.545Z,17.05
2023-05-12T19:47:47.323Z,17.03
2023-05-12T19:50:14.943Z,16.82
2023-05-12T19:52:42.511Z,16.84
2023-05-12T19:55:10.307Z,16.63
2023-05-12T19:57:38.142Z,16.51
2023-05-12T20:00:07.026Z,16.46
2023-05-12T20:02:41.557Z,16.36
2023-05-12T20:05:10.050Z,16.34
2023-05-12T20:07:37.566Z,16.34
2023-05-12T20:10:05.649Z,16.27
2023-05-12T20:12:33.166Z,16.03
2023-05-12T20:15:00.799Z,16.13
2023-05-12T20:17:28.437Z,16.08
2023-05-12T20:19:57.357Z,16.03
2023-05-12T20:22:24.962Z,15.97
2023-05-12T20:24:52.467Z,15.96
2023-05-12T20:27:19.984Z,15.86
2023-05-12T20:29:47.586Z,15.61
2023-05-12T20:32:15.063Z,15.63
2023-05-12T20:34:42.713Z,15.55
2023-05-12T20:37:11.603Z,15.49
2023-05-12T20:39:39.142Z,15.50
2023-05-12T20:42:09.906Z,15.53
2023-05-12T20:44:37.682Z,15.49
2023-05-12T20:47:05.583Z,15.48
2023-05-12T20:49:33.182Z,15.40
2023-05-12T20:52:00.783Z,15.35
2023-05-12T20:54:29.626Z,15.24
2023-05-12T20:56:57.179Z,15.21
2023-05-12T20:59:25.358Z,15.25
2023-05-12T21:01:52.906Z,15.18
2023-05-12T21:04:20.542Z,15.18
2023-05-12T21:06:48.050Z,15.15
2023-05-12T21:09:15.595Z,15.18
2023-05-12T21:11:44.467Z,15.09
2023-05-12T21:14:12.036Z,15.11
2023-05-12T21:16:39.669Z,15.03
2023-05-12T21:19:07.443Z,14.93
2023-05-12T21:21:35.295Z,14.94
2023-05-12T21:24:02.871Z,14.97
2023-05-12T21:26:30.670Z,14.98
2023-05-12T21:29:02.673Z,14.92
2023-05-12T21:31:30.258Z,14.88
2023-05-12T21:33:57.862Z,14.72
2023-05-12T21:36:25.534Z,14.76
2023-05-12T21:38:53.071Z,14.69
2023-05-12T21:41:21.349Z,14.67
2023-05-12T21:43:48.907Z,14.45
2023-05-12T21:46:17.894Z,14.43
2023-05-12T21:48:45.530Z,14.42
2023-05-12T21:51:13.151Z,14.43
2023-05-12T21:53:40.710Z,14.42
2023-05-12T21:56:08.537Z,14.23
2023-05-12T21:58:36.886Z,14.34
2023-05-12T22:01:04.494Z,14.29
2023-05-12T22:03:33.442Z,14.23
2023-05-12T22:06:00.971Z,14.17
2023-05-12T22:08:28.540Z,14.20
2023-05-12T22:10:57.294Z,14.13
2023-05-12T22:13:24.842Z,14.14
2023-05-12T22:15:53.357Z,14.02
2023-05-12T22:18:21.116Z,14.01
2023-05-12T22:20:50.043Z,13.93
2023-05-12T22:23:17.728Z,13.93
2023-05-12T22:25:45.242Z,13.92
2023-05-12T22:28:12.850Z,13.82
2023-05-12T22:30:41.674Z,13.74
2023-05-12T22:33:09.401Z,13.75
2023-05-12T22:35:36.967Z,13.72
2023-05-12T22:38:05.857Z,13.71
2023-05-12T22:40:33.663Z,13.79
2023-05-12T22:43:01.200Z,13.78
2023-05-12T22:45:29.173Z,13.71
2023-05-12T22:47:56.686Z,13.70
2023-05-12T22:50:24.620Z,13.70
2023-05-12T22:52:56.934Z,13.66
2023-05-12T22:55:28.144Z,13.53
2023-05-12T22:57:55.717Z,13.60
2023-05-12T23:00:23.428Z,13.53
2023-05-12T23:02:51.198Z,13.48
2023-05-12T23:05:18.857Z,13.41
2023-05-12T23:07:46.396Z,13.41
2023-05-12T23:10:13.980Z,13.36
2023-05-12T23:12:42.890Z,13.31
2023-05-12T23:15:11.134Z,13.29
2023-05-12T23:17:38.689Z,13.28
2023-05-12T23:20:07.795Z,13.20
2023-05-12T23:22:35.390Z,13.23
2023-05-12T23:25:02.929Z,13.25
2023-05-12T23:27:30.509Z,13.20
2023-05-12T23:30:00.488Z,13.25
2023-05-12T23:32:28.276Z,13.20
2023-05-12T23:34:56.325Z,13.21
2023-05-12T23:37:24.456Z,13.21
2023-05-12T23:39:52.021Z,13.17
2023-05-12T23:42:19.570Z,13.10
2023-05-12T23:44:47.062Z,13.07
2023-05-12T23:47:15.987Z,13.11
2023-05-12T23:49:43.539Z,13.01
2023-05-12T23:52:11.142Z,13.01
2023-05-12T23:54:38.698Z,12.91
2023-05-12T23:57:06.492Z,12.93
2023-05-12T23:59:34.084Z,12.88
